createdAt,value
2023-03-06T00:01:33.553Z,99078.39
2023-03-06T00:04:08.109Z,99079.94
2023-03-06T00:06:40.706Z,99072.95
2023-03-06T00:09:13.802Z,99069.59
2023-03-06T00:11:46.840Z,99073.97
2023-03-06T00:14:19.201Z,99071.19
2023-03-06T00:16:56.979Z,99069.39
2023-03-06T00:19:30.173Z,99065.80
2023-03-06T00:22:03.466Z,99071.20
2023-03-06T00:24:36.553Z,99067.81
2023-03-06T00:27:09.451Z,99070.02
2023-03-06T00:29:42.651Z,99071.72
2023-03-06T00:32:16.048Z,99076.34
2023-03-06T00:34:51.708Z,99081.48
2023-03-06T00:37:25.298Z,99084.45
2023-03-06T00:39:58.286Z,99083.95
2023-03-06T00:42:30.756Z,99086.05
2023-03-06T00:45:03.169Z,99082.72
2023-03-06T00:47:36.237Z,99090.67
2023-03-06T00:50:10.073Z,99089.02
2023-03-06T00:52:42.620Z,99094.61
2023-03-06T00:55:15.106Z,99098.67
2023-03-06T00:57:48.691Z,99096.44
2023-03-06T01:00:22.255Z,99091.53
2023-03-06T01:02:56.187Z,99083.59
2023-03-06T01:05:30.134Z,99099.48
2023-03-06T01:08:05.461Z,99089.98
2023-03-06T01:10:41.732Z,99092.38
2023-03-06T01:13:14.502Z,99091.05
2023-03-06T01:15:47.500Z,99087.70
2023-03-06T01:18:20.937Z,99091.89
2023-03-06T01:20:53.573Z,99093.82
2023-03-06T01:23:26.437Z,99089.15
2023-03-06T01:26:00.159Z,99087.83
2023-03-06T01:28:34.195Z,99084.20
2023-03-06T01:31:06.572Z,99084.20
2023-03-06T01:33:39.676Z,99082.78
2023-03-06T01:36:13.181Z,99070.52
2023-03-06T01:38:45.751Z,99072.31
2023-03-06T01:41:21.303Z,99067.67
2023-03-06T01:43:54.453Z,99073.47
2023-03-06T01:46:44.892Z,99067.86
2023-03-06T01:49:26.798Z,99067.00
2023-03-06T01:52:17.528Z,99064.51
2023-03-06T01:55:04.031Z,99058.34
2023-03-06T01:57:50.369Z,99069.28
2023-03-06T02:00:27.148Z,99061.30
2023-03-06T02:03:11.016Z,99061.30
2023-03-06T02:05:44.137Z,99063.95
2023-03-06T02:08:20.386Z,99060.14
2023-03-06T02:11:20.654Z,99061.94
2023-03-06T02:13:55.339Z,99064.70
2023-03-06T02:16:30.747Z,99063.00
2023-03-06T02:19:03.794Z,99058.03
2023-03-06T02:21:37.458Z,99056.70
2023-03-06T02:24:43.857Z,99058.72
2023-03-06T02:27:17.604Z,99053.27
2023-03-06T02:29:49.928Z,99052.98
2023-03-06T02:32:22.543Z,99047.16
2023-03-06T02:34:57.927Z,99048.41
2023-03-06T02:37:30.607Z,99046.98
2023-03-06T02:40:09.039Z,99044.31
2023-03-06T02:42:47.716Z,99042.34
2023-03-06T02:45:28.085Z,99045.47
2023-03-06T02:48:02.206Z,99049.09
2023-03-06T02:50:36.054Z,99049.27
2023-03-06T02:53:08.723Z,99046.61
2023-03-06T02:55:41.357Z,99047.57
2023-03-06T02:58:14.583Z,99044.71
2023-03-06T03:00:47.749Z,99041.55
2023-03-06T03:03:21.678Z,99045.26
2023-03-06T03:05:53.998Z,99046.77
2023-03-06T03:08:28.810Z,99045.33
2023-03-06T03:11:03.165Z,99039.44
2023-03-06T03:13:37.788Z,99040.67
2023-03-06T03:16:15.472Z,99042.28
2023-03-06T03:18:50.418Z,99036.08
2023-03-06T03:21:24.476Z,99037.64
2023-03-06T03:23:58.443Z,99037.04
2023-03-06T03:26:32.350Z,99041.04
2023-03-06T03:29:06.571Z,99040.08
2023-03-06T03:31:39.656Z,99034.88
2023-03-06T03:34:12.090Z,99047.98
2023-03-06T03:36:46.864Z,99046.18
2023-03-06T03:39:20.177Z,99045.98
2023-03-06T03:41:53.169Z,99041.41
2023-03-06T03:44:25.807Z,99043.34
2023-03-06T03:46:59.652Z,99043.44
2023-03-06T03:49:32.118Z,99046.01
2023-03-06T03:52:05.975Z,99044.48
2023-03-06T03:54:39.484Z,99047.41
2023-03-06T03:57:11.797Z,99048.48
2023-03-06T03:59:46.513Z,99049.98
2023-03-06T04:02:23.974Z,99045.02
2023-03-06T04:05:01.377Z,99051.69
2023-03-06T04:07:34.370Z,99053.21
2023-03-06T04:10:08.430Z,99050.45
2023-03-06T04:12:40.404Z,99049.52
2023-03-06T04:15:14.258Z,99051.89
2023-03-06T04:17:47.069Z,99059.39
2023-03-06T04:20:21.263Z,99057.49
2023-03-06T04:22:55.015Z,99067.66
2023-03-06T04:25:27.690Z,99068.53
2023-03-06T04:28:00.611Z,99062.92
2023-03-06T04:30:33.945Z,99057.78
2023-03-06T04:33:07.270Z,99062.25
2023-03-06T04:35:40.218Z,99064.16
2023-03-06T04:38:14.443Z,99063.39
2023-03-06T04:40:49.803Z,99071.30
2023-03-06T04:43:23.586Z,99066.16
2023-03-06T04:45:57.001Z,99071.59
2023-03-06T04:48:30.146Z,99072.55
2023-03-06T04:51:02.549Z,99077.61
2023-03-06T04:53:36.314Z,99081.78
2023-03-06T04:56:09.578Z,99079.98
2023-03-06T04:58:44.137Z,99078.92
2023-03-06T05:01:16.891Z,99081.96
2023-03-06T05:03:50.168Z,99091.66
2023-03-06T05:06:22.892Z,99088.06
2023-03-06T05:08:55.503Z,99090.53
2023-03-06T05:11:28.012Z,99094.71
2023-03-06T05:14:01.137Z,99091.48
2023-03-06T05:16:34.151Z,99092.98
2023-03-06T05:19:06.900Z,99106.39
2023-03-06T05:21:39.430Z,99097.52
2023-03-06T05:24:12.067Z,99102.77
2023-03-06T05:26:44.889Z,99105.60
2023-03-06T05:29:17.318Z,99110.08
2023-03-06T05:31:49.796Z,99117.59
2023-03-06T05:34:22.155Z,99113.29
2023-03-06T05:36:55.042Z,99115.22
2023-03-06T05:39:28.449Z,99110.62
2023-03-06T05:42:01.188Z,99125.33
2023-03-06T05:44:36.091Z,99123.22
2023-03-06T05:47:09.355Z,99124.25
2023-03-06T05:49:41.984Z,99128.89
2023-03-06T05:52:15.468Z,99128.32
2023-03-06T05:54:52.087Z,99127.35
2023-03-06T05:57:25.373Z,99115.52
2023-03-06T05:59:58.975Z,99122.67
2023-03-06T06:02:31.697Z,99123.50
2023-03-06T06:05:05.142Z,99114.56
2023-03-06T06:07:38.222Z,99127.67
2023-03-06T06:10:12.735Z,99137.27
2023-03-06T06:12:45.271Z,99145.86
2023-03-06T06:15:17.989Z,99149.55
2023-03-06T06:17:51.959Z,99153.66
2023-03-06T06:20:24.703Z,99152.59
2023-03-06T06:22:57.898Z,99153.11
2023-03-06T06:25:30.503Z,99158.64
2023-03-06T06:28:03.641Z,99164.25
2023-03-06T06:30:36.617Z,99170.47
2023-03-06T06:33:10.007Z,99172.53
2023-03-06T06:35:42.300Z,99171.91
2023-03-06T06:38:15.364Z,99170.98
2023-03-06T06:41:18.070Z,99168.41
2023-03-06T06:43:23.143Z,99164.92
2023-03-06T06:46:08.854Z,99169.70
2023-03-06T06:48:29.846Z,99172.73
2023-03-06T06:51:02.373Z,99179.01
2023-03-06T06:53:34.988Z,99189.23
2023-03-06T06:56:08.874Z,99187.48
2023-03-06T06:58:42.860Z,99194.33
2023-03-06T07:01:16.731Z,99196.22
2023-03-06T07:03:49.786Z,99203.43
2023-03-06T07:06:23.085Z,99207.42
2023-03-06T07:08:57.552Z,99207.90
2023-03-06T07:11:30.340Z,99209.73
2023-03-06T07:14:03.327Z,99203.15
2023-03-06T07:16:35.947Z,99209.75
2023-03-06T07:19:09.193Z,99196.42
2023-03-06T07:21:42.017Z,99208.52
2023-03-06T07:24:14.645Z,99210.19
2023-03-06T07:26:50.792Z,99217.84
2023-03-06T07:29:24.261Z,99224.34
2023-03-06T07:31:56.682Z,99223.09
2023-03-06T07:34:29.970Z,99220.09
2023-03-06T07:37:02.467Z,99221.34
2023-03-06T07:39:35.789Z,99228.42
2023-03-06T07:42:08.589Z,99229.53
2023-03-06T07:44:43.361Z,99226.47
2023-03-06T07:47:16.520Z,99239.66
2023-03-06T07:49:48.931Z,99241.59
2023-03-06T07:52:21.689Z,99237.64
2023-03-06T07:54:54.194Z,99242.48
2023-03-06T07:57:26.717Z,99239.52
2023-03-06T07:59:59.321Z,99236.42
2023-03-06T08:02:32.507Z,99238.91
2023-03-06T08:05:05.162Z,99234.05
2023-03-06T08:07:37.851Z,99235.48
2023-03-06T08:10:10.932Z,99237.28
2023-03-06T08:12:43.984Z,99242.61
2023-03-06T08:15:16.463Z,99249.78
2023-03-06T08:17:50.328Z,99255.65
2023-03-06T08:20:23.292Z,99260.23
2023-03-06T08:22:55.887Z,99257.21
2023-03-06T08:25:28.478Z,99265.41
2023-03-06T08:28:01.789Z,99271.02
2023-03-06T08:30:34.609Z,99272.16
2023-03-06T08:33:07.224Z,99267.61
2023-03-06T08:35:39.837Z,99264.78
2023-03-06T08:38:12.661Z,99267.50
2023-03-06T08:40:45.345Z,99269.09
2023-03-06T08:43:18.521Z,99272.38
2023-03-06T08:45:55.704Z,99272.39
2023-03-06T08:48:28.806Z,99274.80
2023-03-06T08:51:01.348Z,99278.48
2023-03-06T08:53:43.201Z,99280.59
2023-03-06T08:56:08.652Z,99286.23
2023-03-06T08:58:41.031Z,99287.97
2023-03-06T09:01:22.811Z,99293.27
2023-03-06T09:03:57.433Z,99294.90
2023-03-06T09:06:32.087Z,99292.55
2023-03-06T09:09:05.012Z,99292.95
2023-03-06T09:11:38.323Z,99292.24
2023-03-06T09:14:10.905Z,99287.41
2023-03-06T09:16:43.522Z,99292.22
2023-03-06T09:19:16.024Z,99290.84
2023-03-06T09:21:49.333Z,99290.41
2023-03-06T09:24:21.788Z,99292.00
2023-03-06T09:26:54.358Z,99305.91
2023-03-06T09:29:29.466Z,99306.38
2023-03-06T09:32:03.014Z,99303.03
2023-03-06T09:34:36.624Z,99310.47
2023-03-06T09:37:09.987Z,99308.31
2023-03-06T09:39:42.490Z,99304.05
2023-03-06T09:42:21.520Z,99304.26
2023-03-06T09:44:57.216Z,99299.92
2023-03-06T09:47:39.722Z,99302.80
2023-03-06T09:50:31.905Z,99305.07
2023-03-06T09:53:16.753Z,99309.30
2023-03-06T09:56:08.772Z,99305.49
2023-03-06T09:58:45.489Z,99308.37
2023-03-06T10:01:27.727Z,99302.55
2023-03-06T10:04:35.026Z,99300.85
2023-03-06T10:07:18.063Z,99305.41
2023-03-06T10:10:07.058Z,99298.47
2023-03-06T10:12:44.418Z,99300.30
2023-03-06T10:15:21.328Z,99297.07
2023-03-06T10:17:54.479Z,99290.14
2023-03-06T10:20:40.496Z,99297.84
2023-03-06T10:23:51.420Z,99295.99
2023-03-06T10:26:28.072Z,99290.27
2023-03-06T10:29:26.386Z,99302.00
2023-03-06T10:32:15.562Z,99300.14
2023-03-06T10:34:48.850Z,99304.05
2023-03-06T10:37:23.035Z,99308.44
2023-03-06T10:39:59.970Z,99312.03
2023-03-06T10:42:32.788Z,99303.70
2023-03-06T10:45:12.838Z,99298.69
2023-03-06T10:50:31.484Z,99279.34
2023-03-06T10:53:10.556Z,99285.30
2023-03-06T10:55:43.753Z,99275.39
2023-03-06T10:58:29.385Z,99278.06
2023-03-06T11:01:22.887Z,99282.13
2023-03-06T11:03:55.345Z,99277.25
2023-03-06T11:06:38.135Z,99281.98
2023-03-06T11:09:23.568Z,99280.30
2023-03-06T11:11:57.910Z,99285.66
2023-03-06T11:14:30.485Z,99280.09
2023-03-06T11:17:03.492Z,99279.94
2023-03-06T11:19:36.353Z,99280.09
2023-03-06T11:22:19.726Z,99270.42
2023-03-06T11:24:52.683Z,99274.64
2023-03-06T11:27:33.326Z,99276.37
2023-03-06T11:30:08.936Z,99274.50
2023-03-06T11:32:57.739Z,99273.98
2023-03-06T11:35:35.889Z,99273.30
2023-03-06T11:38:25.440Z,99273.98
2023-03-06T11:41:03.592Z,99278.41
2023-03-06T11:43:56.798Z,99279.09
2023-03-06T11:46:42.823Z,99279.60
2023-03-06T11:49:41.169Z,99278.18
2023-03-06T11:52:20.917Z,99279.52
2023-03-06T11:54:56.847Z,99275.58
2023-03-06T11:57:49.707Z,99271.55
2023-03-06T12:00:55.541Z,99275.35
2023-03-06T12:03:44.622Z,99274.98
2023-03-06T12:06:57.090Z,99286.77
2023-03-06T12:09:43.608Z,99286.16
2023-03-06T12:12:57.328Z,99289.02
2023-03-06T12:16:16.393Z,99294.66
2023-03-06T12:19:30.350Z,99297.48
2023-03-06T12:22:37.651Z,99294.99
2023-03-06T12:25:45.993Z,99293.94
2023-03-06T12:28:47.087Z,99306.45
2023-03-06T12:32:08.826Z,99299.25
2023-03-06T12:35:17.802Z,99304.25
2023-03-06T12:38:22.311Z,99305.87
2023-03-06T12:41:33.287Z,99307.86
2023-03-06T12:44:45.417Z,99302.73
2023-03-06T12:47:22.066Z,99312.68
2023-03-06T12:50:02.020Z,99318.81
2023-03-06T12:52:34.930Z,99309.58
2023-03-06T12:55:08.851Z,99308.84
2023-03-06T12:57:42.155Z,99304.84
2023-03-06T13:00:37.797Z,99298.69
2023-03-06T13:03:40.263Z,99288.00
2023-03-06T13:06:36.536Z,99289.22
2023-03-06T13:09:29.314Z,99296.83
2023-03-06T13:12:10.241Z,99302.17
2023-03-06T13:14:54.200Z,99292.02
2023-03-06T13:17:29.139Z,99302.01
2023-03-06T13:20:19.849Z,99300.72
2023-03-06T13:22:52.721Z,99301.58
2023-03-06T13:25:33.572Z,99300.95
2023-03-06T13:28:06.810Z,99302.94
2023-03-06T13:30:43.914Z,99308.48
2023-03-06T13:33:35.068Z,99309.78
2023-03-06T13:36:33.687Z,99305.86
2023-03-06T13:39:09.455Z,99309.13
2023-03-06T13:41:55.863Z,99311.85
2023-03-06T13:44:33.182Z,99308.94
2023-03-06T13:47:21.682Z,99308.41
2023-03-06T13:49:54.006Z,99302.27
2023-03-06T13:52:34.408Z,99307.63
2023-03-06T13:55:17.879Z,99310.88
2023-03-06T13:58:23.645Z,99301.61
2023-03-06T14:01:23.680Z,99303.84
2023-03-06T14:04:44.666Z,99306.44
2023-03-06T14:07:34.834Z,99310.00
2023-03-06T14:10:21.112Z,99299.91
2023-03-06T14:13:04.923Z,99302.59
2023-03-06T14:15:49.512Z,99306.50
2023-03-06T14:18:41.273Z,99300.89
2023-03-06T14:21:15.994Z,99307.84
2023-03-06T14:23:47.644Z,99306.73
2023-03-06T14:26:23.115Z,99301.61
2023-03-06T14:29:20.596Z,99309.66
2023-03-06T14:31:56.003Z,99309.19
2023-03-06T14:34:35.963Z,99309.55
2023-03-06T14:37:30.123Z,99311.64
2023-03-06T14:40:02.454Z,99319.09
2023-03-06T14:42:35.312Z,99316.02
2023-03-06T14:45:12.618Z,99314.66
2023-03-06T14:47:53.448Z,99318.17
2023-03-06T14:50:30.820Z,99316.09
2023-03-06T14:53:26.194Z,99313.53
2023-03-06T14:56:06.439Z,99324.45
2023-03-06T14:59:01.452Z,99325.75
2023-03-06T15:01:38.446Z,99318.34
2023-03-06T15:04:40.410Z,99315.43
2023-03-06T15:07:19.639Z,99321.91
2023-03-06T15:09:53.880Z,99320.80
2023-03-06T15:12:45.000Z,99323.82
2023-03-06T15:15:22.457Z,99321.61
2023-03-06T15:17:55.527Z,99327.44
2023-03-06T15:21:20.280Z,99328.87
2023-03-06T15:23:55.489Z,99325.83
2023-03-06T15:26:33.465Z,99327.48
2023-03-06T15:29:19.005Z,99328.54
2023-03-06T15:31:52.099Z,99329.99
2023-03-06T15:34:24.723Z,99331.20
2023-03-06T15:36:59.546Z,99336.62
2023-03-06T15:39:38.952Z,99349.38
2023-03-06T15:42:25.206Z,99351.91
2023-03-06T15:45:02.563Z,99357.02
2023-03-06T15:47:35.116Z,99359.05
2023-03-06T15:50:30.395Z,99355.11
2023-03-06T15:53:02.049Z,99360.47
2023-03-06T15:55:34.621Z,99363.25
2023-03-06T15:58:07.125Z,99360.80
2023-03-06T16:00:39.862Z,99365.21
2023-03-06T16:03:13.233Z,99364.41
2023-03-06T16:05:47.491Z,99367.56
2023-03-06T16:08:20.042Z,99371.08
2023-03-06T16:10:54.774Z,99372.41
2023-03-06T16:13:29.005Z,99375.13
2023-03-06T16:16:01.488Z,99376.81
2023-03-06T16:18:34.559Z,99372.91
2023-03-06T16:21:07.444Z,99378.38
2023-03-06T16:23:41.283Z,99379.60
2023-03-06T16:26:27.682Z,99381.31
2023-03-06T16:29:01.073Z,99380.44
2023-03-06T16:31:33.922Z,99384.45
2023-03-06T16:34:07.849Z,99380.94
2023-03-06T16:36:40.247Z,99379.09
2023-03-06T16:39:37.520Z,99384.96
2023-03-06T16:42:10.272Z,99385.06
2023-03-06T16:44:42.878Z,99382.70
2023-03-06T16:47:16.138Z,99379.69
2023-03-06T16:49:48.654Z,99387.58
2023-03-06T16:52:22.227Z,99384.63
2023-03-06T16:54:55.864Z,99379.64
2023-03-06T16:57:30.024Z,99377.07
2023-03-06T17:00:03.318Z,99384.73
2023-03-06T17:02:36.052Z,99385.72
2023-03-06T17:05:09.263Z,99383.25
2023-03-06T17:07:42.576Z,99388.31
2023-03-06T17:10:16.873Z,99379.86
2023-03-06T17:12:50.349Z,99377.13
2023-03-06T17:15:23.471Z,99380.75
2023-03-06T17:17:58.058Z,99385.95
2023-03-06T17:20:31.296Z,99386.55
2023-03-06T17:23:04.056Z,99385.78
2023-03-06T17:25:38.226Z,99386.46
2023-03-06T17:28:11.712Z,99383.83
2023-03-06T17:30:44.184Z,99389.59
2023-03-06T17:33:17.671Z,99383.05
2023-03-06T17:35:50.726Z,99385.56
2023-03-06T17:38:23.916Z,99381.75
2023-03-06T17:40:56.336Z,99386.34
2023-03-06T17:43:28.697Z,99388.64
2023-03-06T17:46:05.798Z,99390.95
2023-03-06T17:48:38.353Z,99386.94
2023-03-06T17:51:12.163Z,99392.49
2023-03-06T17:53:45.173Z,99384.20
2023-03-06T17:56:18.999Z,99388.88
2023-03-06T17:58:51.632Z,99386.14
2023-03-06T18:01:26.921Z,99388.05
2023-03-06T18:04:00.107Z,99391.42
2023-03-06T18:06:57.084Z,99391.89
2023-03-06T18:09:39.403Z,99390.39
2023-03-06T18:12:11.815Z,99393.93
2023-03-06T18:14:44.532Z,99393.16
2023-03-06T18:17:17.356Z,99394.23
2023-03-06T18:19:49.852Z,99391.25
2023-03-06T18:22:23.199Z,99395.27
2023-03-06T18:24:55.628Z,99402.81
2023-03-06T18:27:28.299Z,99397.00
2023-03-06T18:30:00.878Z,99399.95
2023-03-06T18:32:33.626Z,99401.55
2023-03-06T18:35:06.511Z,99399.05
2023-03-06T18:37:39.424Z,99400.89
2023-03-06T18:40:13.901Z,99401.82
2023-03-06T18:42:48.681Z,99404.83
2023-03-06T18:45:21.312Z,99407.50
2023-03-06T18:47:53.701Z,99401.95
2023-03-06T18:50:27.141Z,99409.41
2023-03-06T18:52:59.545Z,99408.17
2023-03-06T18:55:32.775Z,99405.79
2023-03-06T18:58:05.925Z,99405.98
2023-03-06T19:00:40.086Z,99411.33
2023-03-06T19:03:13.358Z,99413.91
2023-03-06T19:05:49.021Z,99413.27
2023-03-06T19:08:21.028Z,99414.30
2023-03-06T19:10:53.846Z,99418.23
2023-03-06T19:13:26.873Z,99415.66
2023-03-06T19:15:59.259Z,99419.86
2023-03-06T19:18:32.389Z,99420.83
2023-03-06T19:21:13.135Z,99413.78
2023-03-06T19:23:47.527Z,99417.69
2023-03-06T19:26:20.017Z,99419.96
2023-03-06T19:28:52.667Z,99425.12
2023-03-06T19:31:27.656Z,99420.92
2023-03-06T19:34:00.650Z,99417.96
2023-03-06T19:36:34.423Z,99419.18
2023-03-06T19:39:09.638Z,99421.19
2023-03-06T19:41:42.123Z,99408.09
2023-03-06T19:44:16.345Z,99406.66
2023-03-06T19:46:58.824Z,99412.45
2023-03-06T19:49:31.423Z,99411.51
2023-03-06T19:52:05.443Z,99404.33
2023-03-06T19:54:38.573Z,99409.77
2023-03-06T19:57:12.142Z,99401.45
2023-03-06T19:59:44.865Z,99402.86
2023-03-06T20:02:20.211Z,99404.40
2023-03-06T20:04:53.577Z,99413.05
2023-03-06T20:07:26.345Z,99409.14
2023-03-06T20:10:00.606Z,99405.53
2023-03-06T20:12:34.624Z,99403.80
2023-03-06T20:15:08.990Z,99401.69
2023-03-06T20:17:41.389Z,99401.59
2023-03-06T20:20:14.941Z,99396.23
2023-03-06T20:22:47.796Z,99395.94
2023-03-06T20:25:20.731Z,99392.49
2023-03-06T20:27:53.487Z,99397.84
2023-03-06T20:30:29.500Z,99397.08
2023-03-06T20:32:59.607Z,99389.05
2023-03-06T20:35:32.101Z,99384.94
2023-03-06T20:38:05.291Z,99383.50
2023-03-06T20:41:02.666Z,99380.55
2023-03-06T20:43:35.963Z,99383.33
2023-03-06T20:46:08.817Z,99376.55
2023-03-06T20:48:42.183Z,99374.84
2023-03-06T20:51:28.103Z,99371.03
2023-03-06T20:54:01.834Z,99366.52
2023-03-06T20:56:36.907Z,99371.13
2023-03-06T20:59:11.861Z,99374.58
2023-03-06T21:01:45.958Z,99370.77
2023-03-06T21:04:20.361Z,99368.20
2023-03-06T21:06:55.015Z,99363.91
2023-03-06T21:09:27.649Z,99364.69
2023-03-06T21:12:00.728Z,99359.91
2023-03-06T21:14:33.350Z,99364.28
2023-03-06T21:17:06.010Z,99360.00
2023-03-06T21:19:40.040Z,99353.42
2023-03-06T21:22:13.781Z,99358.88
2023-03-06T21:24:46.168Z,99353.42
2023-03-06T21:27:19.125Z,99349.31
2023-03-06T21:29:51.542Z,99346.06
2023-03-06T21:32:24.075Z,99340.81
2023-03-06T21:34:56.658Z,99336.64
2023-03-06T21:37:29.849Z,99342.92
2023-03-06T21:40:02.454Z,99337.31
2023-03-06T21:42:37.348Z,99343.63
2023-03-06T21:45:09.577Z,99340.02
2023-03-06T21:47:43.042Z,99334.20
2023-03-06T21:50:16.150Z,99333.67
2023-03-06T21:52:48.558Z,99334.91
2023-03-06T21:55:23.180Z,99329.66
2023-03-06T21:57:56.513Z,99327.09
2023-03-06T22:00:29.194Z,99325.08
2023-03-06T22:03:03.817Z,99325.28
2023-03-06T22:05:36.277Z,99323.58
2023-03-06T22:08:09.910Z,99313.35
2023-03-06T22:10:43.191Z,99319.83
2023-03-06T22:13:16.394Z,99316.99
2023-03-06T22:15:55.183Z,99315.39
2023-03-06T22:18:28.204Z,99311.41
2023-03-06T22:21:01.011Z,99317.05
2023-03-06T22:23:35.031Z,99320.98
2023-03-06T22:26:09.372Z,99329.19
2023-03-06T22:28:42.898Z,99330.63
2023-03-06T22:31:18.643Z,99333.66
2023-03-06T22:33:53.340Z,99329.92
2023-03-06T22:36:26.228Z,99326.12
2023-03-06T22:39:01.057Z,99327.14
2023-03-06T22:41:33.651Z,99315.78
2023-03-06T22:44:06.198Z,99317.89
2023-03-06T22:46:39.440Z,99318.06
2023-03-06T22:49:13.251Z,99315.55
2023-03-06T22:51:45.802Z,99310.78
2023-03-06T22:54:18.210Z,99307.51
2023-03-06T22:56:50.599Z,99304.27
2023-03-06T22:59:23.544Z,99294.31
2023-03-06T23:01:57.741Z,99292.34
2023-03-06T23:04:30.509Z,99294.81
2023-03-06T23:07:04.724Z,99294.44
2023-03-06T23:09:37.823Z,99297.84
2023-03-06T23:12:27.920Z,99293.74
2023-03-06T23:15:18.474Z,99295.84
2023-03-06T23:18:08.867Z,99290.30
2023-03-06T23:20:59.708Z,99286.81
2023-03-06T23:23:52.207Z,99288.52
2023-03-06T23:26:27.748Z,99283.07
2023-03-06T23:29:00.728Z,99282.13
2023-03-06T23:31:33.571Z,99278.59
2023-03-06T23:34:06.298Z,99277.09
2023-03-06T23:36:39.179Z,99270.30
2023-03-06T23:39:13.714Z,99269.70
2023-03-06T23:41:46.730Z,99267.03
2023-03-06T23:44:19.770Z,99257.30
2023-03-06T23:46:53.303Z,99257.41
2023-03-06T23:49:26.250Z,99258.54
2023-03-06T23:51:59.386Z,99253.19
2023-03-06T23:54:33.374Z,99252.42
2023-03-06T23:57:05.734Z,99246.55
2023-03-06T23:59:38.282Z,99239.11
